sensor_id;sensor_type;location;lat;lon;timestamp;P1;durP1;ratioP1;P2;durP2;ratioP2
19940;SDS011;10132;50.864;5.176;2022-09-17T00:00:45;6.57;;;1.70;;
19940;SDS011;10132;50.864;5.176;2022-09-17T00:02:50;6.70;;;1.40;;
19940;SDS011;10132;50.864;5.176;2022-09-17T00:04:54;9.83;;;1.63;;
19940;SDS011;10132;50.864;5.176;2022-09-17T00:06:56;5.30;;;1.50;;
19940;SDS011;10132;50.864;5.176;2022-09-17T00:08:58;5.80;;;1.47;;
19940;SDS011;10132;50.864;5.176;2022-09-17T00:11:04;7.47;;;1.40;;
19940;SDS011;10132;50.864;5.176;2022-09-17T00:13:07;7.47;;;2.03;;
19940;SDS011;10132;50.864;5.176;2022-09-17T00:15:09;9.10;;;1.83;;
19940;SDS011;10132;50.864;5.176;2022-09-17T00:17:11;5.13;;;1.47;;
19940;SDS011;10132;50.864;5.176;2022-09-17T00:19:15;9.53;;;1.90;;
19940;SDS011;10132;50.864;5.176;2022-09-17T00:21:18;6.77;;;1.53;;
19940;SDS011;10132;50.864;5.176;2022-09-17T00:23:21;10.27;;;2.13;;
19940;SDS011;10132;50.864;5.176;2022-09-17T00:25:23;8.07;;;1.90;;
19940;SDS011;10132;50.864;5.176;2022-09-17T00:27:25;6.93;;;1.63;;
19940;SDS011;10132;50.864;5.176;2022-09-17T00:29:27;7.80;;;1.53;;
19940;SDS011;10132;50.864;5.176;2022-09-17T00:31:29;5.40;;;1.47;;
19940;SDS011;10132;50.864;5.176;2022-09-17T00:33:31;4.67;;;1.70;;
19940;SDS011;10132;50.864;5.176;2022-09-17T00:35:35;7.17;;;1.67;;
19940;SDS011;10132;50.864;5.176;2022-09-17T00:37:37;5.10;;;1.30;;
19940;SDS011;10132;50.864;5.176;2022-09-17T00:39:38;8.70;;;1.77;;
19940;SDS011;10132;50.864;5.176;2022-09-17T00:41:41;7.30;;;1.93;;
19940;SDS011;10132;50.864;5.176;2022-09-17T00:43:44;10.00;;;2.00;;
19940;SDS011;10132;50.864;5.176;2022-09-17T00:45:48;5.83;;;1.57;;
19940;SDS011;10132;50.864;5.176;2022-09-17T00:47:54;6.70;;;1.77;;
19940;SDS011;10132;50.864;5.176;2022-09-17T00:50:00;5.67;;;1.50;;
19940;SDS011;10132;50.864;5.176;2022-09-17T00:52:05;8.70;;;1.70;;
19940;SDS011;10132;50.864;5.176;2022-09-17T00:54:11;7.53;;;1.73;;
19940;SDS011;10132;50.864;5.176;2022-09-17T00:56:14;7.20;;;1.53;;
19940;SDS011;10132;50.864;5.176;2022-09-17T00:58:22;7.37;;;1.60;;
19940;SDS011;10132;50.864;5.176;2022-09-17T01:00:26;8.23;;;2.00;;
19940;SDS011;10132;50.864;5.176;2022-09-17T01:02:30;6.00;;;1.30;;
19940;SDS011;10132;50.864;5.176;2022-09-17T01:04:32;6.87;;;1.70;;
19940;SDS011;10132;50.864;5.176;2022-09-17T01:06:34;8.53;;;1.83;;
19940;SDS011;10132;50.864;5.176;2022-09-17T01:08:46;8.50;;;1.60;;
19940;SDS011;10132;50.864;5.176;2022-09-17T01:11:00;4.87;;;1.30;;
19940;SDS011;10132;50.864;5.176;2022-09-17T01:13:14;9.40;;;1.73;;
19940;SDS011;10132;50.864;5.176;2022-09-17T01:15:26;6.23;;;1.53;;
19940;SDS011;10132;50.864;5.176;2022-09-17T01:17:36;9.10;;;1.60;;
19940;SDS011;10132;50.864;5.176;2022-09-17T01:22:25;10.07;;;1.70;;
19940;SDS011;10132;50.864;5.176;2022-09-17T01:24:49;5.70;;;1.10;;
19940;SDS011;10132;50.864;5.176;2022-09-17T01:27:21;11.83;;;1.70;;
19940;SDS011;10132;50.864;5.176;2022-09-17T01:29:51;8.33;;;1.77;;
19940;SDS011;10132;50.864;5.176;2022-09-17T01:32:05;6.67;;;1.50;;
19940;SDS011;10132;50.864;5.176;2022-09-17T01:34:13;5.77;;;1.60;;
19940;SDS011;10132;50.864;5.176;2022-09-17T01:36:26;8.53;;;2.03;;
19940;SDS011;10132;50.864;5.176;2022-09-17T01:38:43;6.60;;;1.40;;
19940;SDS011;10132;50.864;5.176;2022-09-17T01:40:54;7.13;;;1.70;;
19940;SDS011;10132;50.864;5.176;2022-09-17T01:43:03;7.80;;;1.80;;
19940;SDS011;10132;50.864;5.176;2022-09-17T01:45:09;6.43;;;1.57;;
19940;SDS011;10132;50.864;5.176;2022-09-17T01:47:18;4.27;;;1.30;;
19940;SDS011;10132;50.864;5.176;2022-09-17T01:49:23;6.60;;;1.83;;
19940;SDS011;10132;50.864;5.176;2022-09-17T01:51:27;5.37;;;1.50;;
19940;SDS011;10132;50.864;5.176;2022-09-17T01:53:36;8.83;;;1.70;;
19940;SDS011;10132;50.864;5.176;2022-09-17T01:55:44;5.90;;;1.50;;
19940;SDS011;10132;50.864;5.176;2022-09-17T01:57:50;9.37;;;1.50;;
19940;SDS011;10132;50.864;5.176;2022-09-17T01:59:57;10.03;;;1.77;;
19940;SDS011;10132;50.864;5.176;2022-09-17T02:02:05;5.40;;;1.23;;
19940;SDS011;10132;50.864;5.176;2022-09-17T02:04:13;6.30;;;1.50;;
19940;SDS011;10132;50.864;5.176;2022-09-17T02:06:20;6.57;;;1.50;;
19940;SDS011;10132;50.864;5.176;2022-09-17T02:08:27;7.37;;;1.70;;
19940;SDS011;10132;50.864;5.176;2022-09-17T02:10:35;5.97;;;1.53;;
19940;SDS011;10132;50.864;5.176;2022-09-17T02:12:40;7.40;;;1.83;;
19940;SDS011;10132;50.864;5.176;2022-09-17T02:14:46;7.20;;;1.50;;
19940;SDS011;10132;50.864;5.176;2022-09-17T02:16:52;7.13;;;1.53;;
19940;SDS011;10132;50.864;5.176;2022-09-17T02:18:59;8.97;;;1.70;;
19940;SDS011;10132;50.864;5.176;2022-09-17T02:21:07;5.57;;;1.50;;
19940;SDS011;10132;50.864;5.176;2022-09-17T02:23:15;8.07;;;1.60;;
19940;SDS011;10132;50.864;5.176;2022-09-17T02:25:24;9.23;;;1.87;;
19940;SDS011;10132;50.864;5.176;2022-09-17T02:27:33;8.83;;;1.90;;
19940;SDS011;10132;50.864;5.176;2022-09-17T02:29:42;7.67;;;1.77;;
19940;SDS011;10132;50.864;5.176;2022-09-17T02:31:45;8.27;;;1.47;;
19940;SDS011;10132;50.864;5.176;2022-09-17T02:33:47;9.93;;;1.87;;
19940;SDS011;10132;50.864;5.176;2022-09-17T02:35:51;8.03;;;1.80;;
19940;SDS011;10132;50.864;5.176;2022-09-17T02:37:55;7.90;;;1.73;;
19940;SDS011;10132;50.864;5.176;2022-09-17T02:39:56;6.10;;;1.70;;
19940;SDS011;10132;50.864;5.176;2022-09-17T02:42:02;5.63;;;1.80;;
19940;SDS011;10132;50.864;5.176;2022-09-17T02:44:10;6.47;;;1.77;;
19940;SDS011;10132;50.864;5.176;2022-09-17T02:46:26;6.47;;;1.53;;
19940;SDS011;10132;50.864;5.176;2022-09-17T02:48:45;11.87;;;2.50;;
19940;SDS011;10132;50.864;5.176;2022-09-17T02:53:33;9.47;;;1.90;;
19940;SDS011;10132;50.864;5.176;2022-09-17T02:55:38;10.20;;;1.77;;
19940;SDS011;10132;50.864;5.176;2022-09-17T02:57:47;7.97;;;1.73;;
19940;SDS011;10132;50.864;5.176;2022-09-17T02:59:57;8.00;;;1.70;;
19940;SDS011;10132;50.864;5.176;2022-09-17T03:02:08;8.17;;;1.30;;
19940;SDS011;10132;50.864;5.176;2022-09-17T03:04:16;8.03;;;1.83;;
19940;SDS011;10132;50.864;5.176;2022-09-17T03:06:20;9.87;;;1.80;;
19940;SDS011;10132;50.864;5.176;2022-09-17T03:08:26;9.17;;;1.83;;
19940;SDS011;10132;50.864;5.176;2022-09-17T03:10:31;7.47;;;2.00;;
19940;SDS011;10132;50.864;5.176;2022-09-17T03:12:33;7.30;;;1.70;;
19940;SDS011;10132;50.864;5.176;2022-09-17T03:14:36;6.27;;;1.60;;
19940;SDS011;10132;50.864;5.176;2022-09-17T03:16:38;8.70;;;1.93;;
19940;SDS011;10132;50.864;5.176;2022-09-17T03:18:40;6.80;;;1.53;;
19940;SDS011;10132;50.864;5.176;2022-09-17T03:20:42;7.50;;;1.67;;
19940;SDS011;10132;50.864;5.176;2022-09-17T03:22:45;6.97;;;1.40;;
19940;SDS011;10132;50.864;5.176;2022-09-17T03:24:47;9.07;;;1.70;;
19940;SDS011;10132;50.864;5.176;2022-09-17T03:26:51;8.33;;;1.97;;
19940;SDS011;10132;50.864;5.176;2022-09-17T03:28:53;9.47;;;1.80;;
19940;SDS011;10132;50.864;5.176;2022-09-17T03:30:54;9.27;;;1.70;;
19940;SDS011;10132;50.864;5.176;2022-09-17T03:32:56;9.53;;;1.90;;
19940;SDS011;10132;50.864;5.176;2022-09-17T03:34:58;7.40;;;1.97;;
19940;SDS011;10132;50.864;5.176;2022-09-17T03:37:00;6.57;;;1.80;;
19940;SDS011;10132;50.864;5.176;2022-09-17T03:39:02;7.50;;;1.27;;
19940;SDS011;10132;50.864;5.176;2022-09-17T03:41:05;11.93;;;2.00;;
19940;SDS011;10132;50.864;5.176;2022-09-17T03:43:08;8.17;;;1.73;;
19940;SDS011;10132;50.864;5.176;2022-09-17T03:45:10;6.17;;;1.63;;
19940;SDS011;10132;50.864;5.176;2022-09-17T03:47:12;12.07;;;1.83;;
19940;SDS011;10132;50.864;5.176;2022-09-17T03:49:15;7.47;;;1.63;;
19940;SDS011;10132;50.864;5.176;2022-09-17T03:51:17;7.57;;;1.50;;
19940;SDS011;10132;50.864;5.176;2022-09-17T03:53:19;9.37;;;1.87;;
19940;SDS011;10132;50.864;5.176;2022-09-17T03:55:21;9.37;;;1.90;;
19940;SDS011;10132;50.864;5.176;2022-09-17T03:57:23;7.90;;;1.63;;
19940;SDS011;10132;50.864;5.176;2022-09-17T03:59:26;9.97;;;2.00;;
19940;SDS011;10132;50.864;5.176;2022-09-17T04:01:28;5.17;;;1.30;;
19940;SDS011;10132;50.864;5.176;2022-09-17T04:03:30;8.50;;;1.70;;
19940;SDS011;10132;50.864;5.176;2022-09-17T04:05:33;13.07;;;2.30;;
19940;SDS011;10132;50.864;5.176;2022-09-17T04:07:35;7.57;;;1.67;;
19940;SDS011;10132;50.864;5.176;2022-09-17T04:09:36;5.83;;;1.20;;
19940;SDS011;10132;50.864;5.176;2022-09-17T04:11:38;7.83;;;1.90;;
19940;SDS011;10132;50.864;5.176;2022-09-17T04:13:40;7.67;;;1.70;;
19940;SDS011;10132;50.864;5.176;2022-09-17T04:15:44;8.77;;;1.50;;
19940;SDS011;10132;50.864;5.176;2022-09-17T04:17:46;8.37;;;1.80;;
19940;SDS011;10132;50.864;5.176;2022-09-17T04:19:48;10.07;;;1.97;;
19940;SDS011;10132;50.864;5.176;2022-09-17T04:21:50;6.83;;;1.70;;
19940;SDS011;10132;50.864;5.176;2022-09-17T04:23:53;12.40;;;2.23;;
19940;SDS011;10132;50.864;5.176;2022-09-17T04:25:55;9.77;;;1.70;;
19940;SDS011;10132;50.864;5.176;2022-09-17T04:27:56;8.30;;;1.60;;
19940;SDS011;10132;50.864;5.176;2022-09-17T04:29:58;6.40;;;1.77;;
19940;SDS011;10132;50.864;5.176;2022-09-17T04:32:02;6.27;;;1.60;;
19940;SDS011;10132;50.864;5.176;2022-09-17T04:34:04;9.17;;;1.70;;
19940;SDS011;10132;50.864;5.176;2022-09-17T04:36:06;7.47;;;1.80;;
19940;SDS011;10132;50.864;5.176;2022-09-17T04:38:08;13.33;;;2.93;;
19940;SDS011;10132;50.864;5.176;2022-09-17T04:40:12;9.27;;;1.83;;
19940;SDS011;10132;50.864;5.176;2022-09-17T04:42:14;12.33;;;2.20;;
19940;SDS011;10132;50.864;5.176;2022-09-17T04:44:16;9.93;;;1.87;;
19940;SDS011;10132;50.864;5.176;2022-09-17T04:46:18;8.53;;;2.50;;
19940;SDS011;10132;50.864;5.176;2022-09-17T04:48:21;14.17;;;2.30;;
19940;SDS011;10132;50.864;5.176;2022-09-17T04:50:23;9.03;;;1.87;;
19940;SDS011;10132;50.864;5.176;2022-09-17T04:52:25;7.93;;;2.30;;
19940;SDS011;10132;50.864;5.176;2022-09-17T04:54:27;14.03;;;2.50;;
19940;SDS011;10132;50.864;5.176;2022-09-17T04:56:29;9.10;;;2.43;;
19940;SDS011;10132;50.864;5.176;2022-09-17T04:58:31;10.93;;;2.53;;
19940;SDS011;10132;50.864;5.176;2022-09-17T05:00:33;9.63;;;2.20;;
19940;SDS011;10132;50.864;5.176;2022-09-17T05:02:35;11.87;;;1.90;;
19940;SDS011;10132;50.864;5.176;2022-09-17T05:04:38;12.97;;;2.00;;
19940;SDS011;10132;50.864;5.176;2022-09-17T05:06:40;9.47;;;1.80;;
19940;SDS011;10132;50.864;5.176;2022-09-17T05:08:42;10.27;;;2.03;;
19940;SDS011;10132;50.864;5.176;2022-09-17T05:10:44;9.50;;;2.17;;
19940;SDS011;10132;50.864;5.176;2022-09-17T05:12:46;13.43;;;2.00;;
19940;SDS011;10132;50.864;5.176;2022-09-17T05:14:49;12.83;;;2.13;;
19940;SDS011;10132;50.864;5.176;2022-09-17T05:16:51;12.73;;;2.00;;
19940;SDS011;10132;50.864;5.176;2022-09-17T05:18:52;11.60;;;2.20;;
19940;SDS011;10132;50.864;5.176;2022-09-17T05:20:56;9.67;;;2.17;;
19940;SDS011;10132;50.864;5.176;2022-09-17T05:22:58;10.93;;;2.20;;
19940;SDS011;10132;50.864;5.176;2022-09-17T05:25:00;11.50;;;2.60;;
19940;SDS011;10132;50.864;5.176;2022-09-17T05:27:02;15.30;;;2.20;;
19940;SDS011;10132;50.864;5.176;2022-09-17T05:29:04;6.43;;;1.80;;
19940;SDS011;10132;50.864;5.176;2022-09-17T05:31:06;7.70;;;2.33;;
19940;SDS011;10132;50.864;5.176;2022-09-17T05:33:08;11.60;;;1.60;;
19940;SDS011;10132;50.864;5.176;2022-09-17T05:35:10;11.87;;;2.67;;
19940;SDS011;10132;50.864;5.176;2022-09-17T05:37:14;8.17;;;2.03;;
19940;SDS011;10132;50.864;5.176;2022-09-17T05:39:15;12.07;;;2.20;;
19940;SDS011;10132;50.864;5.176;2022-09-17T05:41:19;10.80;;;2.53;;
19940;SDS011;10132;50.864;5.176;2022-09-17T05:43:21;12.53;;;2.47;;
19940;SDS011;10132;50.864;5.176;2022-09-17T05:45:23;11.33;;;2.10;;
19940;SDS011;10132;50.864;5.176;2022-09-17T05:47:25;12.80;;;2.27;;
19940;SDS011;10132;50.864;5.176;2022-09-17T05:49:27;9.53;;;1.90;;
19940;SDS011;10132;50.864;5.176;2022-09-17T05:51:29;7.80;;;2.23;;
19940;SDS011;10132;50.864;5.176;2022-09-17T05:53:33;12.33;;;2.20;;
19940;SDS011;10132;50.864;5.176;2022-09-17T05:55:35;11.07;;;2.20;;
19940;SDS011;10132;50.864;5.176;2022-09-17T05:57:37;16.57;;;2.90;;
19940;SDS011;10132;50.864;5.176;2022-09-17T05:59:38;15.67;;;2.70;;
19940;SDS011;10132;50.864;5.176;2022-09-17T06:01:40;9.83;;;2.10;;
19940;SDS011;10132;50.864;5.176;2022-09-17T06:03:42;13.07;;;2.30;;
19940;SDS011;10132;50.864;5.176;2022-09-17T06:05:51;12.40;;;2.40;;
19940;SDS011;10132;50.864;5.176;2022-09-17T06:07:53;13.40;;;2.43;;
19940;SDS011;10132;50.864;5.176;2022-09-17T06:09:57;12.13;;;2.13;;
19940;SDS011;10132;50.864;5.176;2022-09-17T06:11:59;13.27;;;2.20;;
19940;SDS011;10132;50.864;5.176;2022-09-17T06:14:01;12.30;;;2.20;;
19940;SDS011;10132;50.864;5.176;2022-09-17T06:16:03;14.60;;;2.47;;
19940;SDS011;10132;50.864;5.176;2022-09-17T06:18:05;11.47;;;2.03;;
19940;SDS011;10132;50.864;5.176;2022-09-17T06:20:07;10.43;;;1.87;;
19940;SDS011;10132;50.864;5.176;2022-09-17T06:22:10;12.27;;;1.93;;
19940;SDS011;10132;50.864;5.176;2022-09-17T06:24:12;11.53;;;2.33;;
19940;SDS011;10132;50.864;5.176;2022-09-17T06:26:15;8.33;;;2.07;;
19940;SDS011;10132;50.864;5.176;2022-09-17T06:28:18;9.63;;;2.47;;
19940;SDS011;10132;50.864;5.176;2022-09-17T06:30:19;10.90;;;2.47;;
19940;SDS011;10132;50.864;5.176;2022-09-17T06:32:21;12.63;;;2.20;;
19940;SDS011;10132;50.864;5.176;2022-09-17T06:34:23;8.33;;;1.73;;
19940;SDS011;10132;50.864;5.176;2022-09-17T06:36:25;10.07;;;2.00;;
19940;SDS011;10132;50.864;5.176;2022-09-17T06:38:28;9.00;;;1.80;;
19940;SDS011;10132;50.864;5.176;2022-09-17T06:40:30;12.63;;;2.10;;
19940;SDS011;10132;50.864;5.176;2022-09-17T06:42:34;8.30;;;1.80;;
19940;SDS011;10132;50.864;5.176;2022-09-17T06:44:36;9.90;;;1.90;;
19940;SDS011;10132;50.864;5.176;2022-09-17T06:46:38;10.20;;;1.80;;
19940;SDS011;10132;50.864;5.176;2022-09-17T06:48:40;7.97;;;1.67;;
19940;SDS011;10132;50.864;5.176;2022-09-17T06:50:42;12.03;;;2.13;;
19940;SDS011;10132;50.864;5.176;2022-09-17T06:52:46;10.00;;;1.97;;
19940;SDS011;10132;50.864;5.176;2022-09-17T06:54:49;8.27;;;1.97;;
19940;SDS011;10132;50.864;5.176;2022-09-17T06:56:51;8.20;;;1.67;;
19940;SDS011;10132;50.864;5.176;2022-09-17T06:58:54;8.03;;;1.90;;
19940;SDS011;10132;50.864;5.176;2022-09-17T07:00:57;9.63;;;2.07;;
19940;SDS011;10132;50.864;5.176;2022-09-17T07:03:00;9.70;;;2.00;;
19940;SDS011;10132;50.864;5.176;2022-09-17T07:05:02;10.83;;;2.33;;
19940;SDS011;10132;50.864;5.176;2022-09-17T07:07:04;9.40;;;1.90;;
19940;SDS011;10132;50.864;5.176;2022-09-17T07:09:06;9.13;;;1.70;;
19940;SDS011;10132;50.864;5.176;2022-09-17T07:11:08;9.63;;;1.60;;
19940;SDS011;10132;50.864;5.176;2022-09-17T07:13:10;7.63;;;1.60;;
19940;SDS011;10132;50.864;5.176;2022-09-17T07:15:13;11.43;;;1.70;;
19940;SDS011;10132;50.864;5.176;2022-09-17T07:17:16;6.57;;;1.90;;
19940;SDS011;10132;50.864;5.176;2022-09-17T07:19:18;6.27;;;1.73;;
19940;SDS011;10132;50.864;5.176;2022-09-17T07:21:19;10.40;;;1.67;;
19940;SDS011;10132;50.864;5.176;2022-09-17T07:23:22;7.80;;;1.80;;
19940;SDS011;10132;50.864;5.176;2022-09-17T07:25:24;7.47;;;1.70;;
19940;SDS011;10132;50.864;5.176;2022-09-17T07:27:27;12.17;;;1.83;;
19940;SDS011;10132;50.864;5.176;2022-09-17T07:29:29;10.37;;;2.30;;
19940;SDS011;10132;50.864;5.176;2022-09-17T07:31:32;7.80;;;2.13;;
19940;SDS011;10132;50.864;5.176;2022-09-17T07:33:34;9.63;;;2.47;;
19940;SDS011;10132;50.864;5.176;2022-09-17T07:35:37;7.53;;;1.60;;
19940;SDS011;10132;50.864;5.176;2022-09-17T07:37:39;11.37;;;2.13;;
19940;SDS011;10132;50.864;5.176;2022-09-17T07:39:41;8.47;;;2.07;;
19940;SDS011;10132;50.864;5.176;2022-09-17T07:41:43;6.57;;;1.43;;
19940;SDS011;10132;50.864;5.176;2022-09-17T07:43:45;8.40;;;1.67;;
19940;SDS011;10132;50.864;5.176;2022-09-17T07:45:46;4.97;;;1.40;;
19940;SDS011;10132;50.864;5.176;2022-09-17T07:47:50;8.80;;;1.70;;
19940;SDS011;10132;50.864;5.176;2022-09-17T07:49:52;8.83;;;1.47;;
19940;SDS011;10132;50.864;5.176;2022-09-17T07:51:54;7.57;;;1.73;;
19940;SDS011;10132;50.864;5.176;2022-09-17T07:53:56;8.93;;;1.40;;
19940;SDS011;10132;50.864;5.176;2022-09-17T07:55:59;9.90;;;2.03;;
19940;SDS011;10132;50.864;5.176;2022-09-17T07:58:01;9.83;;;2.07;;
19940;SDS011;10132;50.864;5.176;2022-09-17T08:00:04;11.93;;;1.40;;
19940;SDS011;10132;50.864;5.176;2022-09-17T08:02:08;10.17;;;1.60;;
19940;SDS011;10132;50.864;5.176;2022-09-17T08:04:13;9.57;;;2.33;;
19940;SDS011;10132;50.864;5.176;2022-09-17T08:06:16;8.67;;;1.40;;
19940;SDS011;10132;50.864;5.176;2022-09-17T08:08:19;9.00;;;1.70;;
19940;SDS011;10132;50.864;5.176;2022-09-17T08:10:22;10.90;;;1.70;;
19940;SDS011;10132;50.864;5.176;2022-09-17T08:12:26;7.37;;;1.50;;
19940;SDS011;10132;50.864;5.176;2022-09-17T08:14:28;7.67;;;1.60;;
19940;SDS011;10132;50.864;5.176;2022-09-17T08:16:29;9.87;;;1.73;;
19940;SDS011;10132;50.864;5.176;2022-09-17T08:18:31;10.60;;;1.93;;
19940;SDS011;10132;50.864;5.176;2022-09-17T08:20:36;7.40;;;1.47;;
19940;SDS011;10132;50.864;5.176;2022-09-17T08:22:38;7.83;;;1.93;;
19940;SDS011;10132;50.864;5.176;2022-09-17T08:24:40;7.30;;;2.60;;
19940;SDS011;10132;50.864;5.176;2022-09-17T08:26:42;8.47;;;2.80;;
19940;SDS011;10132;50.864;5.176;2022-09-17T08:28:44;12.77;;;2.90;;
19940;SDS011;10132;50.864;5.176;2022-09-17T08:30:46;9.20;;;2.63;;
19940;SDS011;10132;50.864;5.176;2022-09-17T08:32:49;7.50;;;1.90;;
19940;SDS011;10132;50.864;5.176;2022-09-17T08:34:51;7.43;;;1.67;;
19940;SDS011;10132;50.864;5.176;2022-09-17T08:36:54;8.97;;;1.77;;
19940;SDS011;10132;50.864;5.176;2022-09-17T08:38:56;8.00;;;1.80;;
19940;SDS011;10132;50.864;5.176;2022-09-17T08:41:04;4.97;;;1.30;;
19940;SDS011;10132;50.864;5.176;2022-09-17T08:43:17;6.70;;;1.70;;
19940;SDS011;10132;50.864;5.176;2022-09-17T08:45:20;9.13;;;2.80;;
19940;SDS011;10132;50.864;5.176;2022-09-17T08:47:24;7.13;;;1.90;;
19940;SDS011;10132;50.864;5.176;2022-09-17T08:49:31;7.30;;;1.73;;
19940;SDS011;10132;50.864;5.176;2022-09-17T08:51:37;8.07;;;1.60;;
19940;SDS011;10132;50.864;5.176;2022-09-17T08:53:51;10.30;;;1.77;;
19940;SDS011;10132;50.864;5.176;2022-09-17T08:56:02;8.90;;;1.50;;
19940;SDS011;10132;50.864;5.176;2022-09-17T09:00:53;6.07;;;1.60;;
19940;SDS011;10132;50.864;5.176;2022-09-17T09:03:03;11.07;;;2.23;;
19940;SDS011;10132;50.864;5.176;2022-09-17T09:05:16;8.80;;;2.20;;
19940;SDS011;10132;50.864;5.176;2022-09-17T09:07:22;8.53;;;1.63;;
19940;SDS011;10132;50.864;5.176;2022-09-17T09:09:29;7.13;;;1.47;;
19940;SDS011;10132;50.864;5.176;2022-09-17T09:11:37;8.23;;;1.70;;
19940;SDS011;10132;50.864;5.176;2022-09-17T09:13:42;6.80;;;1.70;;
19940;SDS011;10132;50.864;5.176;2022-09-17T09:15:48;5.67;;;1.60;;
19940;SDS011;10132;50.864;5.176;2022-09-17T09:17:54;5.40;;;1.70;;
19940;SDS011;10132;50.864;5.176;2022-09-17T09:19:59;9.03;;;1.60;;
19940;SDS011;10132;50.864;5.176;2022-09-17T09:22:03;7.47;;;1.43;;
19940;SDS011;10132;50.864;5.176;2022-09-17T09:24:08;5.47;;;1.37;;
19940;SDS011;10132;50.864;5.176;2022-09-17T09:26:22;4.87;;;1.40;;
19940;SDS011;10132;50.864;5.176;2022-09-17T09:28:41;6.87;;;1.10;;
19940;SDS011;10132;50.864;5.176;2022-09-17T09:31:07;7.50;;;1.40;;
19940;SDS011;10132;50.864;5.176;2022-09-17T09:33:24;7.57;;;1.70;;
19940;SDS011;10132;50.864;5.176;2022-09-17T09:35:29;7.23;;;1.70;;
19940;SDS011;10132;50.864;5.176;2022-09-17T09:37:33;6.23;;;1.43;;
19940;SDS011;10132;50.864;5.176;2022-09-17T09:39:36;6.43;;;1.47;;
19940;SDS011;10132;50.864;5.176;2022-09-17T09:41:43;6.97;;;1.60;;
19940;SDS011;10132;50.864;5.176;2022-09-17T09:43:50;7.13;;;1.50;;
19940;SDS011;10132;50.864;5.176;2022-09-17T09:46:01;8.27;;;1.67;;
19940;SDS011;10132;50.864;5.176;2022-09-17T09:48:12;6.53;;;1.50;;
19940;SDS011;10132;50.864;5.176;2022-09-17T09:50:23;4.33;;;1.30;;
19940;SDS011;10132;50.864;5.176;2022-09-17T09:52:40;8.93;;;1.23;;
19940;SDS011;10132;50.864;5.176;2022-09-17T09:54:57;6.47;;;1.30;;
19940;SDS011;10132;50.864;5.176;2022-09-17T09:57:07;6.70;;;1.20;;
19940;SDS011;10132;50.864;5.176;2022-09-17T09:59:13;5.27;;;1.20;;
19940;SDS011;10132;50.864;5.176;2022-09-17T10:01:15;8.90;;;1.33;;
19940;SDS011;10132;50.864;5.176;2022-09-17T10:03:20;6.77;;;1.53;;
19940;SDS011;10132;50.864;5.176;2022-09-17T10:05:23;7.90;;;1.33;;
19940;SDS011;10132;50.864;5.176;2022-09-17T10:07:25;6.73;;;1.30;;
19940;SDS011;10132;50.864;5.176;2022-09-17T10:09:28;9.20;;;1.43;;
19940;SDS011;10132;50.864;5.176;2022-09-17T10:11:31;4.17;;;0.83;;
19940;SDS011;10132;50.864;5.176;2022-09-17T10:13:35;5.80;;;1.10;;
19940;SDS011;10132;50.864;5.176;2022-09-17T10:15:38;7.00;;;1.33;;
19940;SDS011;10132;50.864;5.176;2022-09-17T10:17:40;9.10;;;1.40;;
19940;SDS011;10132;50.864;5.176;2022-09-17T10:19:42;8.00;;;1.83;;
19940;SDS011;10132;50.864;5.176;2022-09-17T10:21:44;5.33;;;1.40;;
19940;SDS011;10132;50.864;5.176;2022-09-17T10:23:46;7.50;;;1.50;;
19940;SDS011;10132;50.864;5.176;2022-09-17T10:25:50;7.23;;;2.00;;
19940;SDS011;10132;50.864;5.176;2022-09-17T10:27:54;5.67;;;1.20;;
19940;SDS011;10132;50.864;5.176;2022-09-17T10:30:02;5.33;;;1.60;;
19940;SDS011;10132;50.864;5.176;2022-09-17T10:32:16;5.93;;;1.73;;
19940;SDS011;10132;50.864;5.176;2022-09-17T10:34:19;7.10;;;1.33;;
19940;SDS011;10132;50.864;5.176;2022-09-17T10:38:43;4.70;;;1.30;;
19940;SDS011;10132;50.864;5.176;2022-09-17T10:40:46;7.17;;;1.50;;
19940;SDS011;10132;50.864;5.176;2022-09-17T10:42:48;5.03;;;1.60;;
19940;SDS011;10132;50.864;5.176;2022-09-17T10:44:52;3.63;;;1.10;;
19940;SDS011;10132;50.864;5.176;2022-09-17T10:47:02;4.97;;;1.10;;
19940;SDS011;10132;50.864;5.176;2022-09-17T10:49:08;6.03;;;1.30;;
19940;SDS011;10132;50.864;5.176;2022-09-17T10:51:18;4.73;;;1.30;;
19940;SDS011;10132;50.864;5.176;2022-09-17T10:53:23;5.07;;;1.50;;
19940;SDS011;10132;50.864;5.176;2022-09-17T10:55:27;4.63;;;1.10;;
19940;SDS011;10132;50.864;5.176;2022-09-17T10:57:42;4.80;;;1.23;;
19940;SDS011;10132;50.864;5.176;2022-09-17T10:59:58;4.30;;;1.17;;
19940;SDS011;10132;50.864;5.176;2022-09-17T11:02:16;5.53;;;1.10;;
19940;SDS011;10132;50.864;5.176;2022-09-17T11:04:50;3.40;;;1.13;;
19940;SDS011;10132;50.864;5.176;2022-09-17T11:07:17;5.10;;;1.00;;
19940;SDS011;10132;50.864;5.176;2022-09-17T11:09:38;6.37;;;1.37;;
19940;SDS011;10132;50.864;5.176;2022-09-17T11:11:49;3.90;;;0.80;;
19940;SDS011;10132;50.864;5.176;2022-09-17T11:14:01;4.50;;;0.93;;
19940;SDS011;10132;50.864;5.176;2022-09-17T11:16:14;7.30;;;1.00;;
19940;SDS011;10132;50.864;5.176;2022-09-17T11:18:31;3.50;;;1.00;;
19940;SDS011;10132;50.864;5.176;2022-09-17T11:20:43;5.90;;;1.00;;
19940;SDS011;10132;50.864;5.176;2022-09-17T11:22:59;5.17;;;1.10;;
19940;SDS011;10132;50.864;5.176;2022-09-17T11:25:20;2.33;;;0.73;;
19940;SDS011;10132;50.864;5.176;2022-09-17T11:27:39;2.53;;;0.70;;
19940;SDS011;10132;50.864;5.176;2022-09-17T11:29:52;3.40;;;0.80;;
19940;SDS011;10132;50.864;5.176;2022-09-17T11:32:04;3.27;;;0.87;;
19940;SDS011;10132;50.864;5.176;2022-09-17T11:36:41;2.30;;;1.00;;
19940;SDS011;10132;50.864;5.176;2022-09-17T11:38:49;3.73;;;0.90;;
19940;SDS011;10132;50.864;5.176;2022-09-17T11:40:55;0.97;;;0.70;;
19940;SDS011;10132;50.864;5.176;2022-09-17T11:43:03;2.77;;;0.80;;
19940;SDS011;10132;50.864;5.176;2022-09-17T11:45:13;2.70;;;0.73;;
19940;SDS011;10132;50.864;5.176;2022-09-17T11:47:19;2.67;;;0.60;;
19940;SDS011;10132;50.864;5.176;2022-09-17T11:49:26;3.03;;;0.67;;
19940;SDS011;10132;50.864;5.176;2022-09-17T11:51:35;3.73;;;0.80;;
19940;SDS011;10132;50.864;5.176;2022-09-17T11:53:41;3.30;;;0.87;;
19940;SDS011;10132;50.864;5.176;2022-09-17T11:55:46;2.43;;;0.70;;
19940;SDS011;10132;50.864;5.176;2022-09-17T11:57:52;1.53;;;0.67;;
19940;SDS011;10132;50.864;5.176;2022-09-17T12:00:01;2.77;;;0.57;;
19940;SDS011;10132;50.864;5.176;2022-09-17T12:02:10;2.70;;;0.83;;
19940;SDS011;10132;50.864;5.176;2022-09-17T12:04:31;2.00;;;0.73;;
19940;SDS011;10132;50.864;5.176;2022-09-17T12:06:42;3.87;;;0.80;;
19940;SDS011;10132;50.864;5.176;2022-09-17T12:08:51;3.67;;;1.00;;
19940;SDS011;10132;50.864;5.176;2022-09-17T12:11:00;2.33;;;0.70;;
19940;SDS011;10132;50.864;5.176;2022-09-17T12:13:13;2.33;;;0.77;;
19940;SDS011;10132;50.864;5.176;2022-09-17T12:15:20;3.93;;;0.67;;
19940;SDS011;10132;50.864;5.176;2022-09-17T12:17:25;2.00;;;0.63;;
19940;SDS011;10132;50.864;5.176;2022-09-17T12:19:32;2.90;;;1.00;;
19940;SDS011;10132;50.864;5.176;2022-09-17T12:21:38;2.03;;;0.50;;
19940;SDS011;10132;50.864;5.176;2022-09-17T12:23:46;3.00;;;0.60;;
19940;SDS011;10132;50.864;5.176;2022-09-17T12:25:52;3.03;;;0.73;;
19940;SDS011;10132;50.864;5.176;2022-09-17T12:28:01;1.70;;;0.60;;
19940;SDS011;10132;50.864;5.176;2022-09-17T12:30:10;1.97;;;0.50;;
19940;SDS011;10132;50.864;5.176;2022-09-17T12:32:20;2.47;;;0.70;;
19940;SDS011;10132;50.864;5.176;2022-09-17T12:34:40;4.80;;;0.50;;
19940;SDS011;10132;50.864;5.176;2022-09-17T12:36:49;6.03;;;1.07;;
19940;SDS011;10132;50.864;5.176;2022-09-17T12:39:10;3.50;;;0.90;;
19940;SDS011;10132;50.864;5.176;2022-09-17T12:41:31;3.07;;;0.90;;
19940;SDS011;10132;50.864;5.176;2022-09-17T12:43:49;5.20;;;0.80;;
19940;SDS011;10132;50.864;5.176;2022-09-17T12:46:07;4.57;;;1.17;;
19940;SDS011;10132;50.864;5.176;2022-09-17T12:51:02;5.13;;;1.70;;